sensor_id;sensor_type;location;lat;lon;timestamp;P1;durP1;ratioP1;P2;durP2;ratioP2
61385;SDS011;47256;18.904;-99.054;2022-09-09T00:00:14;29.33;;;8.73;;
61385;SDS011;47256;18.904;-99.054;2022-09-09T00:03:47;17.23;;;8.85;;
61385;SDS011;47256;18.904;-99.054;2022-09-09T00:11:26;10.45;;;6.72;;
61385;SDS011;47256;18.904;-99.054;2022-09-09T00:19:19;10.90;;;6.45;;
61385;SDS011;47256;18.904;-99.054;2022-09-09T00:22:47;16.67;;;6.82;;
61385;SDS011;47256;18.904;-99.054;2022-09-09T00:30:16;17.17;;;7.93;;
61385;SDS011;47256;18.904;-99.054;2022-09-09T00:33:44;21.10;;;8.80;;
61385;SDS011;47256;18.904;-99.054;2022-09-09T00:37:13;12.57;;;7.05;;
61385;SDS011;47256;18.904;-99.054;2022-09-09T00:44:35;11.45;;;7.40;;
61385;SDS011;47256;18.904;-99.054;2022-09-09T00:48:00;11.65;;;7.63;;
61385;SDS011;47256;18.904;-99.054;2022-09-09T00:55:41;17.65;;;8.45;;
61385;SDS011;47256;18.904;-99.054;2022-09-09T01:02:59;23.60;;;9.27;;
61385;SDS011;47256;18.904;-99.054;2022-09-09T01:06:31;19.77;;;8.77;;
61385;SDS011;47256;18.904;-99.054;2022-09-09T01:09:56;14.23;;;9.05;;
61385;SDS011;47256;18.904;-99.054;2022-09-09T01:13:31;19.20;;;8.52;;
61385;SDS011;47256;18.904;-99.054;2022-09-09T01:16:58;13.32;;;8.52;;
61385;SDS011;47256;18.904;-99.054;2022-09-09T01:20:25;10.93;;;8.40;;
61385;SDS011;47256;18.904;-99.054;2022-09-09T01:24:38;13.95;;;8.25;;
61385;SDS011;47256;18.904;-99.054;2022-09-09T01:28:16;18.00;;;9.00;;
61385;SDS011;47256;18.904;-99.054;2022-09-09T01:31:52;12.10;;;9.35;;
61385;SDS011;47256;18.904;-99.054;2022-09-09T01:39:28;11.85;;;9.38;;
61385;SDS011;47256;18.904;-99.054;2022-09-09T01:42:50;20.38;;;9.20;;
61385;SDS011;47256;18.904;-99.054;2022-09-09T01:46:14;25.38;;;9.65;;
61385;SDS011;47256;18.904;-99.054;2022-09-09T01:49:38;14.07;;;8.70;;
61385;SDS011;47256;18.904;-99.054;2022-09-09T01:53:06;16.10;;;10.45;;
61385;SDS011;47256;18.904;-99.054;2022-09-09T02:00:29;19.38;;;9.68;;
61385;SDS011;47256;18.904;-99.054;2022-09-09T02:03:54;20.25;;;10.00;;
61385;SDS011;47256;18.904;-99.054;2022-09-09T02:11:24;14.63;;;9.73;;
61385;SDS011;47256;18.904;-99.054;2022-09-09T02:14:52;14.95;;;9.23;;
61385;SDS011;47256;18.904;-99.054;2022-09-09T02:18:23;15.77;;;10.95;;
61385;SDS011;47256;18.904;-99.054;2022-09-09T02:21:49;11.27;;;9.47;;
61385;SDS011;47256;18.904;-99.054;2022-09-09T02:25:15;15.10;;;9.00;;
61385;SDS011;47256;18.904;-99.054;2022-09-09T02:28:51;14.70;;;9.73;;
61385;SDS011;47256;18.904;-99.054;2022-09-09T02:32:20;18.63;;;10.82;;
61385;SDS011;47256;18.904;-99.054;2022-09-09T02:35:45;15.57;;;9.43;;
61385;SDS011;47256;18.904;-99.054;2022-09-09T02:39:28;15.10;;;9.88;;
61385;SDS011;47256;18.904;-99.054;2022-09-09T02:42:56;18.58;;;10.45;;
61385;SDS011;47256;18.904;-99.054;2022-09-09T02:53:43;18.70;;;10.02;;
61385;SDS011;47256;18.904;-99.054;2022-09-09T02:57:27;18.40;;;11.23;;
61385;SDS011;47256;18.904;-99.054;2022-09-09T03:04:15;22.48;;;12.13;;
61385;SDS011;47256;18.904;-99.054;2022-09-09T03:07:37;18.15;;;11.52;;
61385;SDS011;47256;18.904;-99.054;2022-09-09T03:11:19;20.48;;;11.60;;
61385;SDS011;47256;18.904;-99.054;2022-09-09T03:14:49;15.30;;;9.82;;
61385;SDS011;47256;18.904;-99.054;2022-09-09T03:18:11;16.40;;;10.43;;
61385;SDS011;47256;18.904;-99.054;2022-09-09T03:21:34;24.67;;;11.57;;
61385;SDS011;47256;18.904;-99.054;2022-09-09T03:25:09;14.57;;;10.13;;
61385;SDS011;47256;18.904;-99.054;2022-09-09T03:28:32;12.95;;;10.18;;
61385;SDS011;47256;18.904;-99.054;2022-09-09T03:31:55;19.25;;;11.07;;
61385;SDS011;47256;18.904;-99.054;2022-09-09T03:35:17;21.88;;;10.75;;
61385;SDS011;47256;18.904;-99.054;2022-09-09T03:38:50;21.23;;;10.75;;
61385;SDS011;47256;18.904;-99.054;2022-09-09T03:42:22;17.38;;;10.55;;
61385;SDS011;47256;18.904;-99.054;2022-09-09T03:45:46;19.58;;;12.50;;
61385;SDS011;47256;18.904;-99.054;2022-09-09T03:49:09;21.05;;;10.98;;
61385;SDS011;47256;18.904;-99.054;2022-09-09T03:52:38;18.25;;;12.05;;
61385;SDS011;47256;18.904;-99.054;2022-09-09T03:56:03;18.15;;;11.00;;
61385;SDS011;47256;18.904;-99.054;2022-09-09T03:59:27;21.30;;;11.82;;
61385;SDS011;47256;18.904;-99.054;2022-09-09T04:02:50;19.95;;;10.32;;
61385;SDS011;47256;18.904;-99.054;2022-09-09T04:06:13;19.60;;;11.48;;
61385;SDS011;47256;18.904;-99.054;2022-09-09T04:09:42;23.67;;;11.90;;
61385;SDS011;47256;18.904;-99.054;2022-09-09T04:13:04;19.20;;;11.88;;
61385;SDS011;47256;18.904;-99.054;2022-09-09T04:16:27;16.13;;;11.85;;
61385;SDS011;47256;18.904;-99.054;2022-09-09T04:19:50;17.15;;;10.77;;
61385;SDS011;47256;18.904;-99.054;2022-09-09T04:23:25;16.25;;;10.02;;
61385;SDS011;47256;18.904;-99.054;2022-09-09T04:27:07;16.27;;;11.02;;
61385;SDS011;47256;18.904;-99.054;2022-09-09T04:30:30;15.13;;;10.05;;
61385;SDS011;47256;18.904;-99.054;2022-09-09T04:33:52;15.40;;;9.95;;
61385;SDS011;47256;18.904;-99.054;2022-09-09T04:37:15;17.77;;;10.85;;
61385;SDS011;47256;18.904;-99.054;2022-09-09T04:40:51;17.60;;;11.40;;
61385;SDS011;47256;18.904;-99.054;2022-09-09T04:44:14;14.88;;;10.63;;
61385;SDS011;47256;18.904;-99.054;2022-09-09T04:47:36;17.73;;;10.68;;
61385;SDS011;47256;18.904;-99.054;2022-09-09T04:51:00;20.65;;;10.40;;
61385;SDS011;47256;18.904;-99.054;2022-09-09T04:54:31;16.20;;;11.43;;
61385;SDS011;47256;18.904;-99.054;2022-09-09T04:58:07;14.80;;;10.07;;
61385;SDS011;47256;18.904;-99.054;2022-09-09T05:01:29;30.15;;;10.93;;
61385;SDS011;47256;18.904;-99.054;2022-09-09T05:05:11;14.77;;;11.02;;
61385;SDS011;47256;18.904;-99.054;2022-09-09T05:08:52;11.60;;;9.88;;
61385;SDS011;47256;18.904;-99.054;2022-09-09T05:12:32;12.40;;;10.65;;
61385;SDS011;47256;18.904;-99.054;2022-09-09T05:16:01;21.20;;;10.65;;
61385;SDS011;47256;18.904;-99.054;2022-09-09T05:19:36;19.17;;;9.85;;
61385;SDS011;47256;18.904;-99.054;2022-09-09T05:23:11;25.85;;;11.52;;
61385;SDS011;47256;18.904;-99.054;2022-09-09T05:26:33;21.70;;;10.23;;
61385;SDS011;47256;18.904;-99.054;2022-09-09T05:29:55;16.42;;;11.30;;
61385;SDS011;47256;18.904;-99.054;2022-09-09T05:33:18;14.63;;;9.68;;
61385;SDS011;47256;18.904;-99.054;2022-09-09T05:36:48;17.90;;;11.07;;
61385;SDS011;47256;18.904;-99.054;2022-09-09T05:40:11;19.05;;;10.27;;
61385;SDS011;47256;18.904;-99.054;2022-09-09T05:43:34;17.80;;;11.15;;
61385;SDS011;47256;18.904;-99.054;2022-09-09T05:46:56;25.25;;;12.23;;
61385;SDS011;47256;18.904;-99.054;2022-09-09T05:50:25;15.90;;;12.73;;
61385;SDS011;47256;18.904;-99.054;2022-09-09T05:54:00;16.95;;;12.00;;
61385;SDS011;47256;18.904;-99.054;2022-09-09T05:57:23;19.45;;;13.23;;
61385;SDS011;47256;18.904;-99.054;2022-09-09T06:00:45;16.90;;;12.68;;
61385;SDS011;47256;18.904;-99.054;2022-09-09T06:04:08;24.77;;;13.45;;
61385;SDS011;47256;18.904;-99.054;2022-09-09T06:07:42;20.00;;;10.93;;
61385;SDS011;47256;18.904;-99.054;2022-09-09T06:11:07;14.00;;;12.57;;
61385;SDS011;47256;18.904;-99.054;2022-09-09T06:14:50;23.75;;;10.15;;
61385;SDS011;47256;18.904;-99.054;2022-09-09T06:18:13;13.23;;;9.35;;
61385;SDS011;47256;18.904;-99.054;2022-09-09T06:21:41;16.58;;;8.82;;
61385;SDS011;47256;18.904;-99.054;2022-09-09T06:25:05;11.57;;;9.65;;
61385;SDS011;47256;18.904;-99.054;2022-09-09T06:28:28;14.27;;;8.73;;
61385;SDS011;47256;18.904;-99.054;2022-09-09T06:31:50;11.45;;;9.30;;
61385;SDS011;47256;18.904;-99.054;2022-09-09T06:35:32;12.68;;;9.20;;
61385;SDS011;47256;18.904;-99.054;2022-09-09T06:38:57;15.93;;;9.38;;
61385;SDS011;47256;18.904;-99.054;2022-09-09T06:42:20;16.73;;;9.18;;
61385;SDS011;47256;18.904;-99.054;2022-09-09T06:45:43;13.65;;;9.07;;
61385;SDS011;47256;18.904;-99.054;2022-09-09T06:49:13;16.40;;;10.30;;
61385;SDS011;47256;18.904;-99.054;2022-09-09T06:52:54;12.45;;;8.20;;
61385;SDS011;47256;18.904;-99.054;2022-09-09T06:59:39;18.17;;;10.13;;
61385;SDS011;47256;18.904;-99.054;2022-09-09T07:03:01;11.15;;;8.35;;
61385;SDS011;47256;18.904;-99.054;2022-09-09T07:06:25;13.63;;;9.10;;
61385;SDS011;47256;18.904;-99.054;2022-09-09T07:09:52;18.50;;;9.85;;
61385;SDS011;47256;18.904;-99.054;2022-09-09T07:13:14;16.33;;;9.35;;
61385;SDS011;47256;18.904;-99.054;2022-09-09T07:16:36;10.93;;;8.65;;
61385;SDS011;47256;18.904;-99.054;2022-09-09T07:20:11;15.77;;;9.75;;
